In Rescue
 
Open Full Screen Window  High Contrast Mode
Wind Gusting 19 knots
13
November 14, 2019 1:18 PM CST
Weather Information
Wind Direction
  230 °
Wind Speed
  13 kt (15 mph)
Wind Gust
  19 kt (22 mph)
Altimeter
29.92 in
Visibility
10 SM
Temperature
-04° C
25° F
Dewpoint
-12° C
10° F
Humidity
54%
1hr Rain Fall
00.00 in.
24hr Rain Fall
00.00 in.
Sky Condition
Overcast @ 4,800 ft
VFR

METAR KELO 141918Z AUTO 23013G19KT 10SM OVC048 M04/M12 A2992 RMK AO2

FAA Disclaimer: The data displayed is for advisory purposes only and is not to be used for flight planning or operations.